Time;durP1;ratioP1;P1;durP2;ratioP2;P2;SDS_P1;SDS_P2;PMS_P1;PMS_P2;Temp;Humidity;BMP_temperature;BMP_pressure;BME280_temperature;BME280_humidity;BME280_pressure;Samples;Min_cycle;Max_cycle;Signal;HPM_P1;HPM_P2
2022/03/02 00:00:08;;;;;;;17.80;3.97;;;;;;;;;;5061702;28;20044;-60
2022/03/02 00:02:34;;;;;;;24.15;4.63;;;;;;;;;;5062627;28;20037;-61
2022/03/02 00:05:00;;;;;;;18.60;3.85;;;;;;;;;;5063702;28;20045;-60
2022/03/02 00:07:26;;;;;;;15.73;3.38;;;;;;;;;;5068098;28;20085;-59
2022/03/02 00:09:51;;;;;;;15.77;3.10;;;;;;;;;;5050919;28;20509;-60
2022/03/02 00:12:16;;;;;;;13.85;3.05;;;;;;;;;;5062493;28;20032;-60
2022/03/02 00:14:42;;;;;;;16.75;4.13;;;;;;;;;;5071184;28;20028;-60
2022/03/02 00:17:08;;;;;;;13.63;3.95;;;;;;;;;;5059910;28;20028;-60
2022/03/02 00:19:34;;;;;;;17.63;3.72;;;;;;;;;;5066256;28;20032;-59
2022/03/02 00:21:59;;;;;;;24.45;4.63;;;;;;;;;;5060143;28;20033;-59
2022/03/02 00:24:25;;;;;;;19.00;4.72;;;;;;;;;;5066048;28;20414;-60
2022/03/02 00:26:50;;;;;;;12.20;3.60;;;;;;;;;;5065607;28;20033;-60
2022/03/02 00:29:16;;;;;;;23.83;5.38;;;;;;;;;;5054496;28;20090;-60
2022/03/02 00:31:42;;;;;;;19.50;3.85;;;;;;;;;;5060672;28;20052;-60
2022/03/02 00:34:07;;;;;;;19.83;4.05;;;;;;;;;;5062734;28;20052;-59
2022/03/02 00:36:32;;;;;;;16.48;4.70;;;;;;;;;;5058430;28;20079;-60
2022/03/02 00:38:58;;;;;;;18.42;4.82;;;;;;;;;;5062491;28;20050;-60
2022/03/02 00:41:23;;;;;;;20.30;4.60;;;;;;;;;;5060014;28;20575;-59
2022/03/02 00:43:49;;;;;;;28.55;5.22;;;;;;;;;;5064633;28;20048;-59
2022/03/02 00:46:16;;;;;;;24.88;5.35;;;;;;;;;;5064822;28;20589;-61
2022/03/02 00:48:41;;;;;;;14.77;4.75;;;;;;;;;;5060570;28;20036;-60
2022/03/02 00:51:07;;;;;;;20.85;5.57;;;;;;;;;;5059766;28;20032;-60
2022/03/02 00:53:33;;;;;;;25.73;5.22;;;;;;;;;;5060872;28;20060;-60
2022/03/02 00:55:59;;;;;;;33.92;6.00;;;;;;;;;;5067182;28;20036;-60
2022/03/02 00:58:24;;;;;;;21.45;5.20;;;;;;;;;;5064589;28;20487;-59
2022/03/02 01:00:50;;;;;;;14.48;4.85;;;;;;;;;;5063849;28;20053;-60
2022/03/02 01:03:15;;;;;;;20.83;4.63;;;;;;;;;;5059240;28;20029;-60
2022/03/02 01:05:41;;;;;;;19.95;4.57;;;;;;;;;;5066399;28;20495;-60
2022/03/02 01:08:06;;;;;;;28.45;4.80;;;;;;;;;;5063269;28;20103;-60
2022/03/02 01:10:32;;;;;;;23.80;4.75;;;;;;;;;;5061460;28;20051;-59
2022/03/02 01:12:57;;;;;;;18.55;3.95;;;;;;;;;;5056389;28;20112;-59
2022/03/02 01:15:23;;;;;;;18.40;5.65;;;;;;;;;;5067804;28;20052;-59
2022/03/02 01:17:49;;;;;;;23.20;4.50;;;;;;;;;;5066099;28;20067;-58
2022/03/02 01:20:15;;;;;;;21.88;5.28;;;;;;;;;;5063714;28;20094;-59
2022/03/02 01:22:41;;;;;;;19.50;5.80;;;;;;;;;;5065997;28;20028;-59
2022/03/02 01:25:08;;;;;;;19.95;4.85;;;;;;;;;;5065360;28;20107;-60
2022/03/02 01:27:34;;;;;;;21.35;4.55;;;;;;;;;;5063350;28;20044;-60
2022/03/02 01:29:59;;;;;;;17.15;3.83;;;;;;;;;;5062399;28;20052;-60
2022/03/02 01:32:25;;;;;;;18.40;3.97;;;;;;;;;;5060140;28;20057;-59
2022/03/02 01:34:50;;;;;;;24.25;5.55;;;;;;;;;;5054856;28;20041;-59
2022/03/02 01:37:16;;;;;;;14.40;4.45;;;;;;;;;;5056121;28;20063;-60
2022/03/02 01:39:43;;;;;;;22.45;4.55;;;;;;;;;;5057791;28;20024;-59
2022/03/02 01:42:09;;;;;;;15.45;4.20;;;;;;;;;;5064712;28;20117;-59
2022/03/02 01:44:36;;;;;;;22.80;4.82;;;;;;;;;;5064653;28;20024;-60
2022/03/02 01:47:03;;;;;;;15.18;4.28;;;;;;;;;;5062196;28;20039;-60
2022/03/02 01:49:29;;;;;;;22.02;4.57;;;;;;;;;;5064695;28;20037;-59
2022/03/02 01:51:54;;;;;;;18.98;4.30;;;;;;;;;;5073266;28;20032;-60
2022/03/02 01:54:20;;;;;;;20.10;4.43;;;;;;;;;;5062255;28;20111;-59
2022/03/02 01:56:46;;;;;;;15.30;4.07;;;;;;;;;;5067217;28;20036;-59
2022/03/02 01:59:11;;;;;;;26.67;3.40;;;;;;;;;;5059685;28;20043;-59
2022/03/02 02:01:37;;;;;;;12.98;3.65;;;;;;;;;;5063707;28;20036;-59
2022/03/02 02:04:04;;;;;;;23.67;5.53;;;;;;;;;;5069145;28;20024;-59
2022/03/02 02:06:30;;;;;;;30.17;3.65;;;;;;;;;;5059730;28;20025;-59
2022/03/02 02:09:00;;;;;;;22.30;4.30;;;;;;;;;;5062983;28;20035;-60
2022/03/02 02:11:26;;;;;;;17.55;4.68;;;;;;;;;;5061047;28;20029;-59
2022/03/02 02:13:52;;;;;;;37.75;5.05;;;;;;;;;;5062561;28;20029;-60
2022/03/02 02:16:20;;;;;;;16.42;4.30;;;;;;;;;;5061047;28;20033;-59
2022/03/02 02:18:45;;;;;;;19.38;4.40;;;;;;;;;;5056974;28;20032;-59
2022/03/02 02:21:11;;;;;;;21.15;4.50;;;;;;;;;;5060854;28;21247;-59
2022/03/02 02:23:38;;;;;;;18.92;4.75;;;;;;;;;;5063036;28;20040;-59
2022/03/02 02:26:05;;;;;;;29.85;6.47;;;;;;;;;;5067331;28;20025;-59
2022/03/02 02:28:31;;;;;;;24.77;4.30;;;;;;;;;;5062921;28;20123;-60
2022/03/02 02:30:59;;;;;;;23.02;3.75;;;;;;;;;;5063275;28;20106;-60
2022/03/02 02:33:25;;;;;;;15.88;4.15;;;;;;;;;;5065930;28;20066;-59
2022/03/02 02:35:51;;;;;;;17.30;3.60;;;;;;;;;;5067133;28;20341;-59
2022/03/02 02:38:18;;;;;;;18.83;3.22;;;;;;;;;;5061264;28;20431;-60
2022/03/02 02:40:44;;;;;;;17.77;3.90;;;;;;;;;;5058467;28;20031;-59
2022/03/02 02:43:10;;;;;;;22.58;3.63;;;;;;;;;;5060488;28;20024;-59
2022/03/02 02:45:35;;;;;;;19.63;4.25;;;;;;;;;;5060076;28;20091;-59
2022/03/02 02:48:01;;;;;;;15.98;3.80;;;;;;;;;;5064971;28;20038;-59
2022/03/02 02:50:30;;;;;;;19.77;3.83;;;;;;;;;;5067262;28;20127;-59
2022/03/02 02:52:58;;;;;;;16.77;3.28;;;;;;;;;;5061526;28;20032;-59
2022/03/02 02:55:26;;;;;;;20.50;3.70;;;;;;;;;;5063224;28;20090;-59
2022/03/02 02:57:55;;;;;;;22.48;3.80;;;;;;;;;;5059542;28;20036;-59
2022/03/02 03:00:24;;;;;;;14.07;2.67;;;;;;;;;;5064181;28;20042;-59
2022/03/02 03:02:52;;;;;;;21.27;2.92;;;;;;;;;;5068505;28;20027;-59
2022/03/02 03:05:20;;;;;;;14.45;2.78;;;;;;;;;;5061389;28;20043;-58
2022/03/02 03:07:47;;;;;;;21.67;2.97;;;;;;;;;;5066405;28;20086;-59
2022/03/02 03:10:13;;;;;;;21.88;3.83;;;;;;;;;;5059155;28;20127;-59
2022/03/02 03:12:39;;;;;;;24.83;3.53;;;;;;;;;;5061743;28;20040;-58
2022/03/02 03:15:09;;;;;;;15.20;2.75;;;;;;;;;;5065379;28;20019;-59
2022/03/02 03:17:34;;;;;;;27.70;3.45;;;;;;;;;;5056022;28;20040;-59
2022/03/02 03:20:00;;;;;;;16.48;3.10;;;;;;;;;;5064667;28;20024;-59
2022/03/02 03:22:26;;;;;;;12.45;2.60;;;;;;;;;;5061106;28;20040;-59
2022/03/02 03:24:51;;;;;;;13.55;4.20;;;;;;;;;;5063853;28;20403;-59
2022/03/02 03:27:18;;;;;;;15.77;2.78;;;;;;;;;;5058580;28;20113;-60
2022/03/02 03:29:43;;;;;;;30.00;4.18;;;;;;;;;;5053691;28;20059;-59
2022/03/02 03:32:09;;;;;;;11.50;2.42;;;;;;;;;;5061342;28;20499;-60
2022/03/02 03:34:34;;;;;;;13.18;2.78;;;;;;;;;;5063442;28;20035;-59
2022/03/02 03:37:00;;;;;;;23.73;3.22;;;;;;;;;;5068953;28;20033;-59
2022/03/02 03:39:26;;;;;;;15.43;3.45;;;;;;;;;;5066418;28;20189;-59
2022/03/02 03:41:51;;;;;;;25.30;3.03;;;;;;;;;;5067308;28;20037;-59
2022/03/02 03:44:17;;;;;;;18.30;2.83;;;;;;;;;;5066469;28;20040;-59
2022/03/02 03:46:42;;;;;;;19.15;2.78;;;;;;;;;;5058250;28;20036;-59
2022/03/02 03:49:09;;;;;;;12.95;2.53;;;;;;;;;;5057676;28;20040;-59
2022/03/02 03:51:35;;;;;;;14.43;2.90;;;;;;;;;;5059525;28;20032;-59
2022/03/02 03:54:01;;;;;;;21.30;2.85;;;;;;;;;;5062083;28;20475;-59
2022/03/02 03:56:28;;;;;;;8.80;2.72;;;;;;;;;;5060598;28;20102;-58
2022/03/02 03:58:54;;;;;;;18.25;2.78;;;;;;;;;;5063522;28;20481;-58
2022/03/02 04:01:21;;;;;;;21.90;2.40;;;;;;;;;;5059163;28;20020;-57
2022/03/02 04:03:46;;;;;;;15.65;2.85;;;;;;;;;;5062000;28;20132;-59
2022/03/02 04:06:12;;;;;;;16.02;3.55;;;;;;;;;;5065970;28;20130;-59
2022/03/02 04:08:37;;;;;;;16.73;2.80;;;;;;;;;;5071363;28;20096;-59
2022/03/02 04:11:03;;;;;;;17.55;2.65;;;;;;;;;;5060333;28;20391;-59
2022/03/02 04:13:29;;;;;;;11.23;2.83;;;;;;;;;;5070021;28;20036;-58
2022/03/02 04:15:55;;;;;;;15.85;2.92;;;;;;;;;;5068178;28;20472;-59
2022/03/02 04:18:20;;;;;;;11.15;2.75;;;;;;;;;;5066464;28;20021;-59
2022/03/02 04:20:46;;;;;;;10.25;2.35;;;;;;;;;;5067558;28;20444;-59
2022/03/02 04:23:12;;;;;;;11.52;2.38;;;;;;;;;;5066414;28;20035;-59
2022/03/02 04:25:37;;;;;;;16.23;2.92;;;;;;;;;;5061750;28;20036;-58
2022/03/02 04:28:03;;;;;;;10.70;2.50;;;;;;;;;;5065405;28;20054;-59
2022/03/02 04:30:30;;;;;;;7.63;1.55;;;;;;;;;;5067958;28;20696;-60
2022/03/02 04:32:57;;;;;;;6.78;2.58;;;;;;;;;;5071141;28;20036;-59
2022/03/02 04:35:22;;;;;;;14.13;2.30;;;;;;;;;;5063788;28;20029;-60
2022/03/02 04:37:48;;;;;;;11.90;2.33;;;;;;;;;;5061744;28;20035;-60
2022/03/02 04:40:14;;;;;;;11.48;2.85;;;;;;;;;;5065567;28;20414;-60
2022/03/02 04:42:39;;;;;;;23.38;3.30;;;;;;;;;;5060886;28;20032;-60
2022/03/02 04:45:05;;;;;;;8.70;2.30;;;;;;;;;;5062744;28;20115;-56
2022/03/02 04:47:31;;;;;;;13.68;2.78;;;;;;;;;;5068017;28;20243;-60
2022/03/02 04:49:58;;;;;;;14.52;2.72;;;;;;;;;;5072799;28;20783;-60
2022/03/02 04:52:23;;;;;;;12.85;2.60;;;;;;;;;;5065636;28;20032;-59
2022/03/02 04:55:07;;;;;;;14.43;2.65;;;;;;;;;;5068756;28;20036;-59
2022/03/02 04:57:41;;;;;;;11.05;2.47;;;;;;;;;;5066587;28;20032;-59
2022/03/02 05:00:10;;;;;;;10.75;2.00;;;;;;;;;;5057459;28;20426;-60
2022/03/02 05:02:36;;;;;;;9.80;2.65;;;;;;;;;;5067720;28;20020;-61
2022/03/02 05:05:03;;;;;;;14.38;3.75;;;;;;;;;;5072573;28;20086;-59
2022/03/02 05:07:28;;;;;;;17.48;4.40;;;;;;;;;;5060818;28;20028;-61
2022/03/02 05:09:54;;;;;;;13.00;3.00;;;;;;;;;;5066821;28;20032;-60
2022/03/02 05:12:22;;;;;;;11.60;2.88;;;;;;;;;;5066394;28;20201;-60
2022/03/02 05:14:49;;;;;;;14.07;2.60;;;;;;;;;;5060727;28;20031;-60
2022/03/02 05:17:15;;;;;;;11.20;2.55;;;;;;;;;;5070774;28;20434;-60
2022/03/02 05:19:41;;;;;;;13.10;2.15;;;;;;;;;;5063981;28;20047;-60
2022/03/02 05:22:06;;;;;;;14.07;3.10;;;;;;;;;;5061993;28;20493;-60
2022/03/02 05:24:32;;;;;;;10.93;2.80;;;;;;;;;;5065532;28;20477;-60
2022/03/02 05:26:58;;;;;;;12.65;2.65;;;;;;;;;;5066673;28;20455;-61
2022/03/02 05:29:23;;;;;;;7.15;2.72;;;;;;;;;;5068229;28;20040;-61
2022/03/02 05:31:49;;;;;;;13.38;2.92;;;;;;;;;;5063369;28;20691;-60
2022/03/02 05:34:14;;;;;;;11.82;3.00;;;;;;;;;;5073654;28;20175;-60
2022/03/02 05:36:40;;;;;;;12.32;3.10;;;;;;;;;;5060421;28;20474;-60
2022/03/02 05:39:05;;;;;;;14.75;3.53;;;;;;;;;;5063819;28;20364;-60
2022/03/02 05:41:33;;;;;;;11.00;2.10;;;;;;;;;;5064154;28;20351;-60
2022/03/02 05:44:01;;;;;;;15.98;2.78;;;;;;;;;;5064927;28;20044;-60
2022/03/02 05:46:27;;;;;;;12.00;2.67;;;;;;;;;;5058290;28;20343;-61
2022/03/02 05:48:53;;;;;;;16.02;2.80;;;;;;;;;;5068197;28;20032;-59
2022/03/02 05:51:20;;;;;;;7.82;2.78;;;;;;;;;;5058862;28;20040;-60
2022/03/02 05:53:45;;;;;;;12.00;2.63;;;;;;;;;;5063657;28;20044;-60
2022/03/02 05:56:11;;;;;;;18.52;2.92;;;;;;;;;;5064056;28;20401;-59
2022/03/02 05:58:36;;;;;;;8.13;3.25;;;;;;;;;;5058736;28;20063;-59
2022/03/02 06:01:03;;;;;;;12.27;3.15;;;;;;;;;;5063496;28;20043;-60
2022/03/02 06:03:29;;;;;;;9.75;2.65;;;;;;;;;;5063112;28;20039;-60
2022/03/02 06:05:55;;;;;;;14.68;2.85;;;;;;;;;;5064541;28;20387;-59
2022/03/02 06:08:21;;;;;;;12.95;2.13;;;;;;;;;;5064695;28;20098;-60
2022/03/02 06:10:47;;;;;;;9.75;2.00;;;;;;;;;;5061583;28;20070;-60
2022/03/02 06:13:14;;;;;;;20.80;3.72;;;;;;;;;;5067800;28;20043;-59
2022/03/02 06:15:40;;;;;;;19.63;3.28;;;;;;;;;;5060416;28;20057;-59
2022/03/02 06:18:06;;;;;;;13.98;3.40;;;;;;;;;;5061683;28;20561;-60
2022/03/02 06:20:32;;;;;;;10.45;2.70;;;;;;;;;;5063580;28;20044;-59
2022/03/02 06:22:58;;;;;;;11.32;3.10;;;;;;;;;;5063995;28;20505;-60
2022/03/02 06:25:24;;;;;;;13.63;3.42;;;;;;;;;;5079605;28;20063;-60
2022/03/02 06:27:50;;;;;;;11.43;2.95;;;;;;;;;;5065922;28;20025;-60
2022/03/02 06:30:15;;;;;;;15.40;3.38;;;;;;;;;;5058650;28;20051;-61
2022/03/02 06:32:41;;;;;;;7.95;2.30;;;;;;;;;;5068649;28;20036;-61
2022/03/02 06:35:07;;;;;;;13.95;2.38;;;;;;;;;;5067417;28;20144;-60
2022/03/02 06:37:33;;;;;;;14.98;3.38;;;;;;;;;;5061927;28;20032;-60
2022/03/02 06:40:10;;;;;;;10.38;2.67;;;;;;;;;;5064067;28;20572;-59
2022/03/02 06:43:06;;;;;;;10.23;2.40;;;;;;;;;;5057679;28;20071;-60
2022/03/02 06:45:55;;;;;;;16.58;2.03;;;;;;;;;;5065473;28;20055;-59
2022/03/02 06:48:25;;;;;;;10.77;2.30;;;;;;;;;;5060319;28;20408;-60
2022/03/02 06:50:53;;;;;;;7.78;1.75;;;;;;;;;;5066992;28;20025;-60
2022/03/02 06:53:35;;;;;;;4.97;1.48;;;;;;;;;;5066552;28;20044;-60
2022/03/02 06:56:03;;;;;;;8.35;1.98;;;;;;;;;;5060250;28;20028;-60
2022/03/02 06:58:38;;;;;;;14.25;1.90;;;;;;;;;;5060039;28;20114;-61
2022/03/02 07:01:03;;;;;;;14.82;2.60;;;;;;;;;;5054538;28;20041;-59
2022/03/02 07:03:35;;;;;;;7.72;1.50;;;;;;;;;;5063433;28;20032;-59
2022/03/02 07:06:01;;;;;;;9.30;1.38;;;;;;;;;;5066828;28;20111;-59
2022/03/02 07:08:28;;;;;;;11.23;1.30;;;;;;;;;;5061039;28;20166;-59
2022/03/02 07:10:54;;;;;;;7.10;1.42;;;;;;;;;;5061271;28;20035;-59
2022/03/02 07:13:21;;;;;;;5.93;1.30;;;;;;;;;;5063346;28;20028;-59
2022/03/02 07:15:47;;;;;;;13.90;1.60;;;;;;;;;;5068755;28;20040;-59
2022/03/02 07:18:14;;;;;;;13.68;2.28;;;;;;;;;;5068129;28;20047;-59
2022/03/02 07:20:41;;;;;;;12.05;1.67;;;;;;;;;;5069277;28;20688;-61
2022/03/02 07:23:13;;;;;;;6.82;1.52;;;;;;;;;;5060217;28;20068;-61
2022/03/02 07:25:42;;;;;;;7.57;1.80;;;;;;;;;;5065690;28;20048;-60
2022/03/02 07:28:10;;;;;;;8.40;2.38;;;;;;;;;;5060433;28;20086;-60
2022/03/02 07:30:36;;;;;;;7.38;1.33;;;;;;;;;;5062466;28;20067;-59
2022/03/02 07:33:03;;;;;;;9.45;1.52;;;;;;;;;;5062568;28;20032;-59
2022/03/02 07:35:35;;;;;;;13.18;2.25;;;;;;;;;;5058695;28;20028;-58
2022/03/02 07:38:02;;;;;;;16.80;2.20;;;;;;;;;;5061283;28;20028;-58
2022/03/02 07:40:27;;;;;;;5.63;1.35;;;;;;;;;;5060277;28;20065;-60
2022/03/02 07:42:53;;;;;;;14.93;2.35;;;;;;;;;;5057463;28;20067;-59
2022/03/02 07:45:19;;;;;;;8.40;1.60;;;;;;;;;;5055541;28;20082;-60
2022/03/02 07:47:47;;;;;;;12.15;1.85;;;;;;;;;;5064136;28;20381;-60
2022/03/02 07:50:13;;;;;;;5.32;1.40;;;;;;;;;;5066730;28;20032;-61
2022/03/02 07:52:49;;;;;;;5.50;1.20;;;;;;;;;;5065218;28;20043;-59
2022/03/02 07:55:15;;;;;;;14.82;1.23;;;;;;;;;;5068373;28;20023;-58
2022/03/02 07:57:41;;;;;;;7.45;1.50;;;;;;;;;;5068085;28;20112;-59
2022/03/02 08:00:09;;;;;;;12.43;2.00;;;;;;;;;;5063669;28;20119;-60
2022/03/02 08:02:35;;;;;;;11.15;2.55;;;;;;;;;;5057036;28;20041;-59
2022/03/02 08:05:02;;;;;;;10.73;2.10;;;;;;;;;;5074730;28;20039;-59
2022/03/02 08:07:27;;;;;;;6.97;1.85;;;;;;;;;;5068805;28;20036;-60
2022/03/02 08:09:53;;;;;;;7.18;1.50;;;;;;;;;;5063124;28;20029;-60
2022/03/02 08:12:21;;;;;;;11.05;1.38;;;;;;;;;;5064311;28;20043;-60
2022/03/02 08:14:48;;;;;;;12.88;1.50;;;;;;;;;;5063672;28;20044;-59
2022/03/02 08:17:14;;;;;;;10.18;1.10;;;;;;;;;;5063348;28;20504;-59
2022/03/02 08:19:39;;;;;;;18.90;2.17;;;;;;;;;;5068602;28;20475;-59
2022/03/02 08:22:13;;;;;;;3.70;1.33;;;;;;;;;;5064715;28;20052;-59
2022/03/02 08:24:43;;;;;;;7.95;1.35;;;;;;;;;;5070263;28;20452;-59
2022/03/02 08:27:12;;;;;;;6.70;1.15;;;;;;;;;;5062662;28;20471;-59
2022/03/02 08:29:38;;;;;;;8.77;1.42;;;;;;;;;;5062545;28;20028;-59
2022/03/02 08:32:06;;;;;;;6.70;1.13;;;;;;;;;;5064690;28;20079;-59
2022/03/02 08:34:32;;;;;;;3.80;1.20;;;;;;;;;;5071941;28;20028;-60
2022/03/02 08:37:01;;;;;;;12.45;1.48;;;;;;;;;;5067855;28;20024;-60
2022/03/02 08:39:26;;;;;;;7.43;1.25;;;;;;;;;;5065010;28;20060;-59
2022/03/02 08:41:53;;;;;;;6.10;1.20;;;;;;;;;;5073585;28;20071;-60
2022/03/02 08:44:20;;;;;;;10.00;2.03;;;;;;;;;;5068363;28;20040;-59
2022/03/02 08:46:46;;;;;;;10.02;1.30;;;;;;;;;;5077567;28;20208;-59
2022/03/02 08:49:17;;;;;;;9.48;2.03;;;;;;;;;;5071771;28;20052;-60
2022/03/02 08:51:42;;;;;;;9.82;1.45;;;;;;;;;;5071658;28;20037;-60
2022/03/02 08:54:13;;;;;;;5.82;1.40;;;;;;;;;;5066324;28;20035;-60
2022/03/02 08:56:41;;;;;;;7.60;1.40;;;;;;;;;;5080469;28;20042;-60
2022/03/02 08:59:11;;;;;;;8.27;1.40;;;;;;;;;;5074432;28;20032;-60
2022/03/02 09:01:40;;;;;;;9.55;1.45;;;;;;;;;;5078286;28;20035;-59
2022/03/02 09:04:06;;;;;;;12.45;1.55;;;;;;;;;;5071921;28;20040;-60
2022/03/02 09:06:35;;;;;;;14.80;1.90;;;;;;;;;;5075256;28;20032;-60
2022/03/02 09:09:01;;;;;;;4.80;1.33;;;;;;;;;;5064732;28;20043;-61
2022/03/02 09:11:27;;;;;;;6.95;1.70;;;;;;;;;;5062927;28;20039;-59
2022/03/02 09:13:52;;;;;;;12.18;1.10;;;;;;;;;;5068084;28;20024;-60
2022/03/02 09:16:18;;;;;;;11.63;1.50;;;;;;;;;;5060307;28;20119;-61
2022/03/02 09:18:44;;;;;;;14.18;2.45;;;;;;;;;;5079369;28;20059;-59
2022/03/02 09:21:09;;;;;;;14.02;1.92;;;;;;;;;;5064739;28;20398;-60
2022/03/02 09:23:40;;;;;;;15.25;2.22;;;;;;;;;;5064380;28;20032;-60
2022/03/02 09:26:09;;;;;;;20.83;2.40;;;;;;;;;;5066250;28;20027;-60
2022/03/02 09:28:38;;;;;;;12.50;1.90;;;;;;;;;;5070446;28;20032;-59
2022/03/02 09:31:08;;;;;;;12.93;1.98;;;;;;;;;;5072931;28;20169;-60
2022/03/02 09:33:35;;;;;;;10.30;1.77;;;;;;;;;;5072104;28;20549;-59
2022/03/02 09:36:04;;;;;;;8.38;1.73;;;;;;;;;;5065029;28;20069;-60
2022/03/02 09:38:32;;;;;;;13.55;2.28;;;;;;;;;;5068108;28;20036;-60
2022/03/02 09:41:06;;;;;;;13.93;2.10;;;;;;;;;;5069059;28;20446;-60
2022/03/02 09:43:34;;;;;;;15.68;2.38;;;;;;;;;;5066755;28;20032;-60
2022/03/02 09:46:05;;;;;;;15.40;2.47;;;;;;;;;;5074950;28;20110;-59
2022/03/02 09:48:40;;;;;;;7.60;1.88;;;;;;;;;;5081534;28;20027;-59
2022/03/02 09:51:07;;;;;;;14.50;2.70;;;;;;;;;;5068706;28;20115;-60
2022/03/02 09:53:35;;;;;;;13.23;2.03;;;;;;;;;;5070734;28;20392;-60
2022/03/02 09:56:03;;;;;;;8.98;1.77;;;;;;;;;;5072597;28;20016;-60
2022/03/02 09:58:30;;;;;;;16.85;2.58;;;;;;;;;;5072992;28;20036;-60
2022/03/02 10:00:58;;;;;;;20.73;2.15;;;;;;;;;;5064986;28;20107;-61
2022/03/02 10:03:30;;;;;;;7.18;1.70;;;;;;;;;;5067021;28;20024;-60
2022/03/02 10:06:02;;;;;;;9.77;1.73;;;;;;;;;;5064595;28;20020;-60
2022/03/02 10:08:32;;;;;;;16.15;2.58;;;;;;;;;;5067224;28;20499;-60
2022/03/02 10:11:03;;;;;;;16.23;2.20;;;;;;;;;;5069281;28;20025;-60
2022/03/02 10:13:29;;;;;;;6.07;1.58;;;;;;;;;;5068987;28;20028;-60
2022/03/02 10:15:57;;;;;;;19.98;2.60;;;;;;;;;;5065866;28;20495;-59
2022/03/02 10:18:26;;;;;;;15.27;2.30;;;;;;;;;;5071743;28;20321;-60
2022/03/02 10:20:59;;;;;;;14.52;1.98;;;;;;;;;;5069783;28;20032;-60
2022/03/02 10:23:36;;;;;;;14.32;1.88;;;;;;;;;;5056807;28;20639;-60
2022/03/02 10:26:15;;;;;;;9.32;1.90;;;;;;;;;;5063061;28;20036;-61
2022/03/02 10:28:53;;;;;;;15.43;1.85;;;;;;;;;;5063574;28;20056;-60
2022/03/02 10:31:21;;;;;;;10.32;2.50;;;;;;;;;;5060753;28;20045;-60
2022/03/02 10:33:52;;;;;;;11.13;1.73;;;;;;;;;;5069130;28;20539;-60
2022/03/02 10:36:20;;;;;;;9.82;1.88;;;;;;;;;;5070492;28;20039;-60
2022/03/02 10:38:58;;;;;;;15.32;2.60;;;;;;;;;;5066626;28;20424;-60
2022/03/02 10:41:26;;;;;;;7.13;1.88;;;;;;;;;;5067957;28;20185;-60
2022/03/02 10:43:59;;;;;;;10.23;2.50;;;;;;;;;;5076387;28;20115;-60
2022/03/02 10:46:26;;;;;;;15.13;2.30;;;;;;;;;;5069214;28;20115;-60
2022/03/02 10:49:07;;;;;;;8.57;1.63;;;;;;;;;;5074857;28;20033;-60
2022/03/02 10:51:35;;;;;;;5.57;1.90;;;;;;;;;;5063486;28;20084;-60
2022/03/02 10:54:05;;;;;;;8.35;1.65;;;;;;;;;;5067445;28;20091;-60
2022/03/02 10:56:38;;;;;;;7.38;1.92;;;;;;;;;;5065066;28;20078;-60
2022/03/02 10:59:07;;;;;;;17.63;2.20;;;;;;;;;;5069012;28;20029;-61
2022/03/02 11:01:33;;;;;;;16.85;2.60;;;;;;;;;;5066029;28;20032;-60
2022/03/02 11:03:59;;;;;;;22.88;4.45;;;;;;;;;;5074974;28;20445;-61
2022/03/02 11:06:25;;;;;;;9.77;2.30;;;;;;;;;;5065256;28;20033;-61
2022/03/02 11:08:54;;;;;;;9.25;1.98;;;;;;;;;;5075827;28;20028;-60
2022/03/02 11:11:23;;;;;;;10.18;2.92;;;;;;;;;;5068609;28;20040;-60
2022/03/02 11:13:50;;;;;;;8.57;1.85;;;;;;;;;;5066768;28;20395;-60
2022/03/02 11:16:21;;;;;;;13.23;2.05;;;;;;;;;;5067956;28;20186;-60
2022/03/02 11:18:52;;;;;;;10.30;1.88;;;;;;;;;;5063368;28;20065;-60
2022/03/02 11:21:21;;;;;;;13.60;2.22;;;;;;;;;;5063305;28;20114;-60
2022/03/02 11:23:56;;;;;;;16.60;2.03;;;;;;;;;;5064981;28;20031;-60
2022/03/02 11:26:42;;;;;;;3.92;1.10;;;;;;;;;;5066052;28;20099;-61
2022/03/02 11:29:13;;;;;;;3.00;0.88;;;;;;;;;;5072837;28;20259;-59
2022/03/02 11:31:51;;;;;;;6.38;1.15;;;;;;;;;;5069005;28;20036;-60
2022/03/02 11:34:23;;;;;;;7.45;1.55;;;;;;;;;;5075266;28;20025;-61
2022/03/02 11:36:55;;;;;;;3.25;1.48;;;;;;;;;;5067908;28;20063;-59
2022/03/02 11:39:24;;;;;;;;;;;;;;;;;;5070665;28;20020;-60
2022/03/02 11:41:53;;;;;;;3.38;1.30;;;;;;;;;;5069559;28;20027;-60
2022/03/02 11:44:32;;;;;;;8.20;1.40;;;;;;;;;;5070006;28;20475;-60
2022/03/02 11:47:02;;;;;;;5.13;1.63;;;;;;;;;;5074585;28;20039;-59
2022/03/02 11:49:44;;;;;;;3.80;1.50;;;;;;;;;;5073327;28;20482;-58
2022/03/02 11:52:21;;;;;;;6.13;1.63;;;;;;;;;;5064706;28;20122;-59
2022/03/02 11:54:53;;;;;;;15.90;2.80;;;;;;;;;;5063266;28;20056;-59
2022/03/02 11:57:20;;;;;;;5.95;2.03;;;;;;;;;;5066340;28;20495;-59
2022/03/02 11:59:47;;;;;;;9.68;1.90;;;;;;;;;;5068362;28;20532;-60
2022/03/02 12:02:21;;;;;;;10.15;2.05;;;;;;;;;;5071734;28;20040;-59
2022/03/02 12:05:01;;;;;;;8.55;2.10;;;;;;;;;;5069826;28;20043;-59
2022/03/02 12:07:38;;;;;;;15.10;2.63;;;;;;;;;;5058963;28;20486;-59
2022/03/02 12:10:14;;;;;;;8.55;2.47;;;;;;;;;;5068333;28;20411;-59
2022/03/02 12:12:40;;;;;;;11.80;2.90;;;;;;;;;;5071362;28;20170;-59
2022/03/02 12:15:06;;;;;;;12.65;2.05;;;;;;;;;;5064647;28;20048;-59
2022/03/02 12:17:33;;;;;;;15.52;2.85;;;;;;;;;;5074138;28;20153;-60
2022/03/02 12:20:10;;;;;;;10.52;2.13;;;;;;;;;;5067124;28;20025;-60
2022/03/02 12:22:48;;;;;;;17.23;2.05;;;;;;;;;;5068044;28;20530;-60
2022/03/02 12:25:17;;;;;;;13.38;2.22;;;;;;;;;;5063675;28;20020;-58
2022/03/02 12:27:56;;;;;;;7.65;2.15;;;;;;;;;;5069125;28;20024;-59
2022/03/02 12:30:22;;;;;;;11.50;1.73;;;;;;;;;;5062797;28;20036;-59
2022/03/02 12:32:51;;;;;;;12.55;2.00;;;;;;;;;;5059981;28;20036;-60
2022/03/02 12:35:19;;;;;;;10.30;2.08;;;;;;;;;;5065474;28;20105;-60
2022/03/02 12:37:45;;;;;;;7.72;1.80;;;;;;;;;;5066785;28;20032;-60
2022/03/02 12:40:13;;;;;;;7.20;1.60;;;;;;;;;;5070530;28;20047;-60
2022/03/02 12:42:39;;;;;;;12.65;2.33;;;;;;;;;;5063447;28;20036;-60
2022/03/02 12:45:06;;;;;;;11.23;2.30;;;;;;;;;;5063312;28;20028;-60
2022/03/02 12:47:32;;;;;;;10.82;1.38;;;;;;;;;;5075577;28;20043;-59
2022/03/02 12:50:00;;;;;;;5.82;1.45;;;;;;;;;;5064811;28;20028;-60
2022/03/02 12:52:28;;;;;;;5.25;1.48;;;;;;;;;;5070323;28;20031;-60
2022/03/02 12:54:54;;;;;;;6.13;1.20;;;;;;;;;;5068504;28;20028;-60
2022/03/02 12:57:23;;;;;;;5.30;1.40;;;;;;;;;;5067120;28;20526;-60
2022/03/02 12:59:48;;;;;;;8.23;1.00;;;;;;;;;;5066331;28;20028;-60
2022/03/02 13:02:23;;;;;;;6.43;1.15;;;;;;;;;;5077841;28;20043;-59
2022/03/02 13:05:00;;;;;;;11.00;1.25;;;;;;;;;;5078453;28;20055;-59
2022/03/02 13:07:37;;;;;;;2.83;0.80;;;;;;;;;;5063465;28;20032;-62
2022/03/02 13:10:13;;;;;;;1.10;0.50;;;;;;;;;;5067754;28;20027;-60
2022/03/02 13:12:48;;;;;;;5.28;0.60;;;;;;;;;;5065009;28;20028;-60
2022/03/02 13:15:16;;;;;;;3.50;0.60;;;;;;;;;;5065670;28;20051;-60
2022/03/02 13:17:41;;;;;;;3.35;0.50;;;;;;;;;;5070676;28;20055;-60
2022/03/02 13:20:17;;;;;;;4.28;1.13;;;;;;;;;;5069487;28;20082;-59
2022/03/02 13:22:44;;;;;;;1.10;0.68;;;;;;;;;;5063321;28;20400;-59
2022/03/02 13:25:10;;;;;;;3.47;0.90;;;;;;;;;;5066733;28;20477;-59
2022/03/02 13:28:11;;;;;;;3.42;0.77;;;;;;;;;;5065650;28;20044;-60
2022/03/02 13:30:48;;;;;;;3.30;0.88;;;;;;;;;;5062544;28;20036;-59
2022/03/02 13:33:13;;;;;;;5.10;0.95;;;;;;;;;;5072323;28;20092;-59
2022/03/02 13:35:54;;;;;;;4.38;0.73;;;;;;;;;;5063404;28;20068;-58
2022/03/02 13:38:19;;;;;;;3.88;0.95;;;;;;;;;;5065804;28;20545;-59
2022/03/02 13:40:48;;;;;;;7.20;0.80;;;;;;;;;;5068177;28;20036;-59
2022/03/02 13:43:14;;;;;;;7.63;1.63;;;;;;;;;;5065821;28;20584;-60
2022/03/02 13:45:45;;;;;;;3.08;1.08;;;;;;;;;;5066356;28;20029;-59
2022/03/02 13:48:23;;;;;;;5.32;0.70;;;;;;;;;;5070593;28;20020;-59
2022/03/02 13:51:05;;;;;;;2.42;0.70;;;;;;;;;;5063542;28;20103;-59
2022/03/02 13:53:34;;;;;;;1.88;1.10;;;;;;;;;;5067806;28;20040;-58
2022/03/02 13:56:43;;;;;;;7.40;1.27;;;;;;;;;;5067408;28;20030;-59
2022/03/02 13:59:18;;;;;;;4.22;1.10;;;;;;;;;;5016485;28;20045;-59
2022/03/02 14:01:44;;;;;;;5.60;1.00;;;;;;;;;;5065999;28;20516;-59
2022/03/02 14:04:12;;;;;;;3.15;1.08;;;;;;;;;;5069777;28;20052;-59
2022/03/02 14:06:40;;;;;;;6.00;1.60;;;;;;;;;;5066445;28;20035;-60
2022/03/02 14:09:08;;;;;;;4.78;1.80;;;;;;;;;;5061389;28;20026;-60
2022/03/02 14:11:42;;;;;;;12.50;3.55;;;;;;;;;;5058949;28;20037;-60
2022/03/02 14:14:25;;;;;;;13.32;3.42;;;;;;;;;;5063973;28;20032;-59
2022/03/02 14:17:00;;;;;;;9.05;2.13;;;;;;;;;;5059338;28;20379;-59
2022/03/02 14:19:27;;;;;;;5.28;1.73;;;;;;;;;;5060748;28;20114;-59
2022/03/02 14:22:02;;;;;;;4.05;1.35;;;;;;;;;;5065542;28;20033;-59
2022/03/02 14:24:30;;;;;;;3.83;0.93;;;;;;;;;;5062636;28;20125;-60
2022/03/02 14:27:00;;;;;;;4.65;1.27;;;;;;;;;;5070437;28;20038;-60
2022/03/02 14:29:27;;;;;;;6.75;1.88;;;;;;;;;;5060911;28;20047;-60
2022/03/02 14:31:58;;;;;;;4.68;1.88;;;;;;;;;;5055793;28;20044;-61
2022/03/02 14:34:42;;;;;;;5.47;1.73;;;;;;;;;;5060993;28;20111;-60
2022/03/02 14:37:14;;;;;;;8.68;1.73;;;;;;;;;;5057430;28;20135;-60
2022/03/02 14:39:59;;;;;;;5.63;1.63;;;;;;;;;;5072397;28;20031;-59
2022/03/02 14:42:25;;;;;;;6.28;1.85;;;;;;;;;;5066511;28;20036;-60